Time;durP1;ratioP1;P1;durP2;ratioP2;P2;SDS_P1;SDS_P2;PMS_P1;PMS_P2;Temp;Humidity;BMP_temperature;BMP_pressure;BME280_temperature;BME280_humidity;BME280_pressure;Samples;Min_cycle;Max_cycle;Signal;HPM_P1;HPM_P2
2023/05/03 00:00:45;;;;;;;1.60;0.63;;;24.50;99.90;;;;;;5073034;28;20211;-74
2023/05/03 00:03:13;;;;;;;1.73;0.70;;;24.40;99.90;;;;;;5073343;28;20591;-74
2023/05/03 00:05:40;;;;;;;4.67;0.70;;;24.60;99.90;;;;;;5073078;28;20188;-71
2023/05/03 00:08:08;;;;;;;2.03;0.57;;;24.70;99.90;;;;;;5072687;28;20191;-71
2023/05/03 00:10:36;;;;;;;3.30;0.57;;;24.50;99.90;;;;;;5074276;28;20180;-74
2023/05/03 00:13:04;;;;;;;1.90;0.90;;;24.40;99.90;;;;;;5072590;28;20195;-73
2023/05/03 00:15:31;;;;;;;2.67;0.70;;;24.30;99.90;;;;;;5072522;28;20238;-72
2023/05/03 00:17:59;;;;;;;3.07;0.70;;;24.10;99.90;;;;;;5071571;28;20199;-72
2023/05/03 00:20:27;;;;;;;2.43;0.80;;;24.60;99.90;;;;;;5072427;28;20222;-74
2023/05/03 00:22:55;;;;;;;3.13;0.67;;;25.50;99.90;;;;;;5072425;28;20200;-73
2023/05/03 00:25:23;;;;;;;3.47;0.80;;;25.70;99.90;;;;;;5072788;28;20176;-72
2023/05/03 00:27:51;;;;;;;1.80;0.57;;;26.00;99.90;;;;;;5072476;28;20171;-73
2023/05/03 00:30:18;;;;;;;2.90;0.47;;;26.70;98.10;;;;;;5072200;28;20188;-73
2023/05/03 00:32:46;;;;;;;1.80;0.73;;;26.20;86.00;;;;;;5071773;28;20180;-72
2023/05/03 00:35:14;;;;;;;2.67;0.47;;;26.30;80.20;;;;;;5072224;28;20206;-73
2023/05/03 00:37:42;;;;;;;0.83;0.63;;;26.30;66.30;;;;;;5071717;28;20191;-72
2023/05/03 00:40:10;;;;;;;1.40;0.50;;;26.60;71.70;;;;;;5071794;28;20264;-71
2023/05/03 00:42:38;;;;;;;6.67;0.77;;;26.00;64.20;;;;;;5071487;28;20235;-73
2023/05/03 00:45:06;;;;;;;2.13;0.63;;;26.20;58.60;;;;;;5071487;28;20698;-71
2023/05/03 00:47:35;;;;;;;4.43;0.57;;;26.80;58.70;;;;;;5071947;28;20632;-72
2023/05/03 00:50:03;;;;;;;0.57;0.50;;;26.80;58.90;;;;;;5071428;28;20196;-72
2023/05/03 00:52:31;;;;;;;5.67;0.67;;;26.40;54.50;;;;;;5068648;28;20206;-73
2023/05/03 00:55:01;;;;;;;1.67;0.67;;;25.60;53.20;;;;;;5071774;28;20218;-74
2023/05/03 00:57:30;;;;;;;0.93;0.57;;;25.80;53.30;;;;;;5071913;28;20180;-74
2023/05/03 00:59:58;;;;;;;4.20;0.63;;;26.10;55.00;;;;;;5071420;28;20208;-72
2023/05/03 01:02:27;;;;;;;0.83;0.50;;;25.60;49.50;;;;;;5071627;28;20187;-75
2023/05/03 01:04:56;;;;;;;2.00;0.73;;;25.70;51.00;;;;;;5072007;28;20180;-73
2023/05/03 01:07:51;;;;;;;3.50;0.73;;;25.30;48.90;;;;;;5071039;28;20241;-70
2023/05/03 01:10:40;;;;;;;2.10;0.50;;;25.60;51.30;;;;;;5069289;28;20176;-69
2023/05/03 01:13:24;;;;;;;4.57;0.70;;;26.10;51.00;;;;;;5065714;28;20191;-70
2023/05/03 01:16:18;;;;;;;2.13;0.60;;;26.20;48.80;;;;;;5071120;28;20353;-71
2023/05/03 01:18:48;;;;;;;6.60;0.60;;;26.40;48.60;;;;;;5071867;28;20222;-72
2023/05/03 01:21:21;;;;;;;3.27;0.57;;;25.90;47.50;;;;;;5071115;28;20239;-73
2023/05/03 01:24:07;;;;;;;3.13;0.63;;;26.30;49.40;;;;;;5071734;28;20668;-72
2023/05/03 01:26:35;;;;;;;2.77;0.70;;;26.60;46.60;;;;;;5071735;28;20183;-71
2023/05/03 01:29:02;;;;;;;5.30;0.60;;;27.00;47.10;;;;;;5069874;28;20267;-70
2023/05/03 01:31:51;;;;;;;2.50;1.23;;;26.60;43.60;;;;;;5070644;28;20195;-72
2023/05/03 01:34:25;;;;;;;4.10;0.83;;;26.70;44.10;;;;;;5068769;28;20234;-73
2023/05/03 01:36:57;;;;;;;3.90;0.67;;;27.10;45.90;;;;;;5071489;28;20202;-73
2023/05/03 01:39:37;;;;;;;1.17;0.50;;;26.40;38.70;;;;;;5071644;28;20291;-71
2023/05/03 01:42:05;;;;;;;4.10;0.80;;;26.30;40.60;;;;;;5071676;28;20191;-74
2023/05/03 01:44:34;;;;;;;1.90;0.83;;;26.90;41.30;;;;;;5069875;28;20604;-74
2023/05/03 01:47:02;;;;;;;2.67;0.80;;;27.30;38.30;;;;;;5071831;28;20168;-73
2023/05/03 01:49:30;;;;;;;4.77;0.63;;;27.30;37.50;;;;;;5071576;28;20248;-73
2023/05/03 01:51:57;;;;;;;13.73;1.73;;;27.50;36.70;;;;;;5071059;28;20244;-73
2023/05/03 01:54:25;;;;;;;2.30;0.60;;;27.10;36.10;;;;;;5071339;28;20180;-73
2023/05/03 01:56:53;;;;;;;3.93;0.63;;;26.90;36.80;;;;;;5071337;28;20526;-74
2023/05/03 01:59:21;;;;;;;4.27;0.80;;;27.10;33.30;;;;;;5071631;28;20209;-73
2023/05/03 02:01:48;;;;;;;1.73;0.50;;;26.90;34.50;;;;;;5071439;28;20660;-73
2023/05/03 02:04:16;;;;;;;3.03;0.77;;;27.40;34.20;;;;;;5071715;28;20214;-72
2023/05/03 02:06:44;;;;;;;4.93;1.03;;;27.40;31.80;;;;;;5071149;28;20187;-71
2023/05/03 02:09:12;;;;;;;2.33;1.03;;;27.70;31.90;;;;;;5071388;28;20184;-74
2023/05/03 02:15:02;;;;;;;7.43;0.90;;;26.60;26.30;;;;;;5070570;28;20691;-73
2023/05/03 02:17:29;;;;;;;2.30;0.50;;;26.60;26.40;;;;;;5071392;28;20253;-73
2023/05/03 02:19:57;;;;;;;7.77;0.70;;;26.30;26.60;;;;;;5071133;28;20207;-70
2023/05/03 02:22:25;;;;;;;4.90;0.53;;;26.80;27.60;;;;;;5071175;28;20204;-74
2023/05/03 02:24:53;;;;;;;1.67;0.53;;;27.10;27.50;;;;;;5071222;28;20671;-75
2023/05/03 02:27:21;;;;;;;2.50;0.70;;;26.60;24.70;;;;;;5071163;28;20172;-73
2023/05/03 02:29:49;;;;;;;1.80;0.53;;;26.50;24.60;;;;;;5071330;28;20237;-73
2023/05/03 02:32:17;;;;;;;3.77;0.50;;;26.80;23.60;;;;;;5071248;28;20225;-74
2023/05/03 02:34:46;;;;;;;2.83;0.53;;;26.80;23.50;;;;;;5070613;28;20176;-73
2023/05/03 02:37:14;;;;;;;2.47;0.77;;;26.80;23.50;;;;;;5071000;28;20176;-75
2023/05/03 02:39:42;;;;;;;1.27;0.50;;;26.90;24.50;;;;;;5071252;28;20242;-75
2023/05/03 02:42:10;;;;;;;2.53;0.97;;;26.90;24.30;;;;;;5070975;28;20206;-72
2023/05/03 02:44:37;;;;;;;6.63;0.77;;;26.80;25.30;;;;;;5071118;28;20176;-73
2023/05/03 02:47:05;;;;;;;0.83;0.63;;;27.00;24.40;;;;;;5071044;28;20195;-73
2023/05/03 02:49:33;;;;;;;2.13;0.50;;;26.80;23.10;;;;;;5071018;28;20172;-73
2023/05/03 02:52:01;;;;;;;5.23;0.60;;;26.90;21.50;;;;;;5070873;28;20258;-72
2023/05/03 02:54:28;;;;;;;4.17;0.70;;;26.70;19.90;;;;;;5071066;28;20651;-73
2023/05/03 02:56:56;;;;;;;3.77;0.70;;;26.90;21.50;;;;;;5071707;28;20176;-72
2023/05/03 02:59:24;;;;;;;3.63;0.60;;;27.00;21.50;;;;;;5073185;28;20313;-73
2023/05/03 03:01:52;;;;;;;3.87;0.70;;;27.00;18.00;;;;;;5074407;28;20304;-74
2023/05/03 03:04:20;;;;;;;2.10;0.60;;;27.00;18.80;;;;;;5074551;28;20180;-70
2023/05/03 03:06:47;;;;;;;6.97;1.20;;;27.30;19.30;;;;;;5074302;28;20181;-74
2023/05/03 03:09:15;;;;;;;2.73;0.67;;;27.60;18.10;;;;;;5074481;28;20240;-74
2023/05/03 03:11:43;;;;;;;4.67;0.57;;;27.00;15.40;;;;;;5074341;28;20176;-73
2023/05/03 03:14:11;;;;;;;4.77;0.60;;;27.00;16.10;;;;;;5073850;28;20179;-73
2023/05/03 03:16:38;;;;;;;1.30;0.37;;;26.70;14.90;;;;;;5074492;28;20246;-73
2023/05/03 03:19:06;;;;;;;1.77;0.50;;;26.70;15.30;;;;;;5074343;28;20172;-73
2023/05/03 03:21:35;;;;;;;0.77;0.63;;;26.60;16.00;;;;;;5076905;28;20237;-73
2023/05/03 03:24:04;;;;;;;1.17;0.43;;;27.20;16.00;;;;;;5077383;28;20222;-73
2023/05/03 03:26:32;;;;;;;2.87;0.80;;;27.10;14.90;;;;;;5076450;28;20207;-73
2023/05/03 03:29:00;;;;;;;2.23;0.70;;;27.20;14.90;;;;;;5073259;28;20194;-73
2023/05/03 03:31:28;;;;;;;1.17;0.60;;;27.10;12.70;;;;;;5074297;28;20177;-74
2023/05/03 03:33:56;;;;;;;2.50;0.50;;;27.10;15.20;;;;;;5074579;28;20571;-71
2023/05/03 03:36:24;;;;;;;2.90;0.50;;;26.80;12.80;;;;;;5073817;28;20219;-72
2023/05/03 03:38:51;;;;;;;3.83;0.57;;;26.70;11.80;;;;;;5073181;28;20198;-70
2023/05/03 03:41:20;;;;;;;1.10;0.33;;;26.70;11.60;;;;;;5073888;28;20246;-73
2023/05/03 03:43:48;;;;;;;4.53;0.43;;;27.00;13.70;;;;;;5071232;28;20172;-72
2023/05/03 03:46:17;;;;;;;4.60;0.60;;;27.20;13.00;;;;;;5073610;28;20183;-73
2023/05/03 03:48:44;;;;;;;4.13;0.60;;;26.90;10.20;;;;;;5074521;28;20178;-71
2023/05/03 03:51:12;;;;;;;4.23;0.63;;;26.10;9.90;;;;;;5073202;28;20690;-73
2023/05/03 03:53:40;;;;;;;2.07;0.60;;;26.20;10.80;;;;;;5073456;28;20178;-71
2023/05/03 03:56:08;;;;;;;4.30;0.53;;;26.30;10.80;;;;;;5073319;28;20180;-72
2023/05/03 03:58:36;;;;;;;2.33;0.63;;;26.30;10.50;;;;;;5073196;28;20176;-69
2023/05/03 04:01:04;;;;;;;1.60;0.60;;;26.60;11.10;;;;;;5073284;28;20219;-73
2023/05/03 04:03:32;;;;;;;5.87;0.90;;;26.80;11.00;;;;;;5073019;28;20172;-71
2023/05/03 04:06:00;;;;;;;1.00;0.40;;;27.00;11.00;;;;;;5073012;28;20190;-72
2023/05/03 04:08:27;;;;;;;1.40;0.80;;;26.80;10.60;;;;;;5072334;28;20172;-72
2023/05/03 04:10:55;;;;;;;4.00;0.53;;;26.60;11.20;;;;;;5073083;28;20633;-73
2023/05/03 04:13:23;;;;;;;1.77;0.27;;;26.80;11.80;;;;;;5072663;28;20275;-72
2023/05/03 04:15:55;;;;;;;2.20;0.60;;;26.60;11.90;;;;;;5071226;28;20678;-73
2023/05/03 04:18:23;;;;;;;1.30;0.50;;;26.40;10.60;;;;;;5072155;28;20244;-72
2023/05/03 04:20:51;;;;;;;0.50;0.37;;;26.60;10.90;;;;;;5072636;28;20220;-72
2023/05/03 04:23:19;;;;;;;1.03;0.30;;;26.50;9.60;;;;;;5072931;28;20179;-71
2023/05/03 04:25:50;;;;;;;0.67;0.40;;;26.50;10.70;;;;;;5072050;28;20227;-69
2023/05/03 04:28:19;;;;;;;1.97;0.47;;;26.20;11.70;;;;;;5072862;28;20701;-73
2023/05/03 04:30:47;;;;;;;2.47;0.30;;;26.20;11.70;;;;;;5072712;28;20184;-72
2023/05/03 04:33:14;;;;;;;5.53;0.63;;;26.30;13.00;;;;;;5071573;28;20676;-70
2023/05/03 04:35:42;;;;;;;2.97;0.40;;;26.20;11.40;;;;;;5071535;28;20710;-72
2023/05/03 04:38:10;;;;;;;1.10;0.50;;;25.90;10.50;;;;;;5072762;28;20180;-69
2023/05/03 04:40:38;;;;;;;3.17;0.60;;;25.60;12.60;;;;;;5070841;28;20227;-70
2023/05/03 04:43:06;;;;;;;0.90;0.40;;;25.70;12.00;;;;;;5072290;28;20187;-72
2023/05/03 04:45:34;;;;;;;0.73;0.40;;;25.80;12.40;;;;;;5072333;28;20187;-73
2023/05/03 04:48:04;;;;;;;1.57;0.47;;;26.10;13.90;;;;;;5072180;28;20536;-71
2023/05/03 04:50:32;;;;;;;2.60;0.40;;;26.40;13.90;;;;;;5072310;28;20187;-72
2023/05/03 04:53:00;;;;;;;2.50;0.80;;;26.30;13.90;;;;;;5072161;28;20211;-71
2023/05/03 04:55:28;;;;;;;2.07;0.77;;;26.20;15.10;;;;;;5071587;28;20184;-71
2023/05/03 04:57:56;;;;;;;2.70;0.80;;;25.90;14.60;;;;;;5072246;28;20176;-70
2023/05/03 05:00:24;;;;;;;3.03;0.50;;;25.50;15.70;;;;;;5070419;28;20563;-72
2023/05/03 05:02:52;;;;;;;2.50;0.60;;;25.20;16.00;;;;;;5071533;28;20182;-70
2023/05/03 05:05:20;;;;;;;2.33;0.63;;;25.00;16.70;;;;;;5072104;28;20566;-73
2023/05/03 05:07:47;;;;;;;6.63;0.70;;;24.90;17.70;;;;;;5070574;28;20191;-70
2023/05/03 05:10:15;;;;;;;8.17;0.90;;;24.80;18.50;;;;;;5070061;28;20618;-73
2023/05/03 05:12:43;;;;;;;1.77;0.50;;;24.90;19.10;;;;;;5071884;28;20176;-71
2023/05/03 05:15:11;;;;;;;4.53;0.70;;;24.60;18.60;;;;;;5071269;28;20235;-72
2023/05/03 05:17:39;;;;;;;2.80;0.87;;;24.60;19.50;;;;;;5071517;28;20180;-72
2023/05/03 05:20:11;;;;;;;4.13;0.63;;;24.60;20.30;;;;;;5070883;28;20289;-73
2023/05/03 05:22:39;;;;;;;4.17;0.67;;;24.60;21.40;;;;;;5071910;28;20168;-71
2023/05/03 05:25:08;;;;;;;3.47;0.50;;;24.40;20.80;;;;;;5075037;28;20271;-72
2023/05/03 05:27:36;;;;;;;5.43;0.80;;;24.40;21.40;;;;;;5071616;28;20187;-71
2023/05/03 05:30:05;;;;;;;3.93;0.50;;;24.30;22.10;;;;;;5071822;28;20179;-73
2023/05/03 05:32:33;;;;;;;5.30;0.57;;;24.30;22.10;;;;;;5071344;28;20225;-72
2023/05/03 05:35:00;;;;;;;3.23;0.60;;;23.90;21.40;;;;;;5070965;28;20192;-70
2023/05/03 05:37:28;;;;;;;1.60;0.60;;;23.80;22.50;;;;;;5072713;28;20527;-70
2023/05/03 05:39:56;;;;;;;6.63;0.50;;;23.60;21.90;;;;;;5071423;28;20694;-70
2023/05/03 05:42:24;;;;;;;1.43;0.60;;;23.60;23.40;;;;;;5072611;28;20179;-71
2023/05/03 05:44:52;;;;;;;1.23;0.60;;;23.50;23.30;;;;;;5072830;28;20180;-71
2023/05/03 05:47:20;;;;;;;2.83;0.80;;;23.40;23.80;;;;;;5072932;28;20248;-72
2023/05/03 05:49:48;;;;;;;1.27;0.60;;;23.40;25.10;;;;;;5072781;28;20176;-71
2023/05/03 05:52:15;;;;;;;3.10;0.60;;;23.50;24.80;;;;;;5072657;28;20267;-72
2023/05/03 05:54:43;;;;;;;1.53;0.50;;;23.40;25.60;;;;;;5072760;28;20168;-71
2023/05/03 05:57:12;;;;;;;3.13;0.70;;;23.30;25.90;;;;;;5072527;28;20171;-72
2023/05/03 05:59:40;;;;;;;0.83;0.40;;;22.90;25.50;;;;;;5071992;28;20695;-71
2023/05/03 06:02:21;;;;;;;2.03;0.70;;;22.80;25.70;;;;;;5072456;28;20184;-71
2023/05/03 06:04:49;;;;;;;4.63;0.70;;;22.60;27.00;;;;;;5071484;28;20498;-70
2023/05/03 06:07:17;;;;;;;1.73;0.63;;;22.50;27.70;;;;;;5072145;28;20290;-68
2023/05/03 06:09:45;;;;;;;1.37;0.43;;;22.40;28.00;;;;;;5072946;28;20202;-69
2023/05/03 06:12:13;;;;;;;2.60;0.77;;;22.30;29.00;;;;;;5072345;28;20165;-70
2023/05/03 06:14:41;;;;;;;3.53;0.90;;;22.20;29.80;;;;;;5072159;28;20219;-69
2023/05/03 06:17:08;;;;;;;3.27;0.80;;;22.10;30.90;;;;;;5072709;28;20637;-69
2023/05/03 06:19:36;;;;;;;3.57;0.70;;;22.00;31.00;;;;;;5072375;28;20659;-69
2023/05/03 06:22:05;;;;;;;1.80;0.67;;;22.00;31.00;;;;;;5071101;28;20196;-68
2023/05/03 06:24:33;;;;;;;6.53;0.80;;;21.90;31.90;;;;;;5072512;28;20174;-68
2023/05/03 06:27:01;;;;;;;2.00;0.57;;;21.90;32.80;;;;;;5072358;28;20637;-69
2023/05/03 06:29:29;;;;;;;2.70;0.63;;;21.70;35.00;;;;;;5072602;28;20277;-68
2023/05/03 06:31:57;;;;;;;2.27;0.60;;;21.70;35.80;;;;;;5074531;28;20594;-69
2023/05/03 06:34:25;;;;;;;3.27;0.67;;;21.70;36.60;;;;;;5076003;28;20236;-68
2023/05/03 06:36:52;;;;;;;3.03;0.93;;;21.70;37.00;;;;;;5075966;28;20626;-67
2023/05/03 06:39:20;;;;;;;0.83;0.50;;;21.70;38.50;;;;;;5075885;28;20633;-67
2023/05/03 06:41:48;;;;;;;2.50;0.70;;;21.70;39.10;;;;;;5076020;28;20632;-68
2023/05/03 06:44:16;;;;;;;12.63;1.20;;;21.70;40.80;;;;;;5076104;28;20176;-69
2023/05/03 06:46:44;;;;;;;2.63;0.80;;;21.60;41.90;;;;;;5076094;28;20194;-67
2023/05/03 06:49:12;;;;;;;2.17;0.80;;;21.50;42.30;;;;;;5075955;28;20263;-69
2023/05/03 06:51:39;;;;;;;3.80;0.87;;;21.50;44.40;;;;;;5075709;28;20652;-69
2023/05/03 06:54:08;;;;;;;1.80;0.70;;;21.40;43.80;;;;;;5075592;28;20214;-69
2023/05/03 06:56:36;;;;;;;2.77;0.80;;;21.30;46.10;;;;;;5075776;28;20183;-70
2023/05/03 06:59:04;;;;;;;2.30;0.70;;;21.30;48.00;;;;;;5075523;28;20265;-68
2023/05/03 07:01:32;;;;;;;5.17;0.90;;;21.10;49.00;;;;;;5075577;28;20229;-69
2023/05/03 07:04:00;;;;;;;4.83;0.70;;;21.10;49.70;;;;;;5075571;28;20222;-67
2023/05/03 07:06:28;;;;;;;0.97;0.63;;;21.00;51.70;;;;;;5075631;28;20168;-67
2023/05/03 07:08:56;;;;;;;1.50;0.60;;;20.90;53.20;;;;;;5075552;28;20704;-68
2023/05/03 07:11:23;;;;;;;2.00;0.57;;;20.80;53.80;;;;;;5075557;28;20210;-70
2023/05/03 07:13:53;;;;;;;2.00;0.77;;;20.70;56.30;;;;;;5075375;28;20654;-68
2023/05/03 07:16:21;;;;;;;3.73;1.10;;;20.60;56.90;;;;;;5075268;28;20253;-68
2023/05/03 07:18:49;;;;;;;1.43;0.80;;;20.50;58.60;;;;;;5075324;28;20600;-68
2023/05/03 07:21:17;;;;;;;6.67;0.90;;;20.50;59.40;;;;;;5075335;28;20247;-68
2023/05/03 07:23:44;;;;;;;1.90;0.47;;;20.50;59.60;;;;;;5075066;28;20632;-68
2023/05/03 07:26:12;;;;;;;4.17;0.70;;;20.60;61.60;;;;;;5075134;28;20184;-67
2023/05/03 07:28:40;;;;;;;1.87;0.63;;;20.50;62.60;;;;;;5075002;28;20174;-68
2023/05/03 07:31:08;;;;;;;7.63;0.70;;;20.50;64.30;;;;;;5075170;28;20191;-67
2023/05/03 07:33:36;;;;;;;5.27;0.77;;;20.40;66.10;;;;;;5075140;28;20170;-67
2023/05/03 07:36:05;;;;;;;2.73;0.67;;;20.30;67.90;;;;;;5075051;28;20183;-67
2023/05/03 07:38:33;;;;;;;2.50;0.70;;;20.30;70.10;;;;;;5075065;28;20201;-68
2023/05/03 07:41:01;;;;;;;2.90;0.93;;;20.30;72.80;;;;;;5075015;28;20657;-66
2023/05/03 07:43:29;;;;;;;2.33;0.60;;;20.30;72.90;;;;;;5073859;28;20238;-67
2023/05/03 07:45:57;;;;;;;1.63;0.60;;;20.30;76.60;;;;;;5074981;28;20176;-69
2023/05/03 07:48:25;;;;;;;6.27;0.80;;;20.30;73.70;;;;;;5074890;28;20176;-67
2023/05/03 07:50:53;;;;;;;3.37;0.90;;;20.40;74.70;;;;;;5074858;28;20184;-67
2023/05/03 07:53:21;;;;;;;2.03;0.70;;;20.40;75.10;;;;;;5074589;28;20235;-66
2023/05/03 07:55:49;;;;;;;1.73;0.77;;;20.40;76.60;;;;;;5074612;28;20183;-67
2023/05/03 07:58:16;;;;;;;1.97;0.70;;;20.40;76.40;;;;;;5074735;28;20167;-69
2023/05/03 08:00:44;;;;;;;2.10;0.90;;;20.40;78.10;;;;;;5074617;28;20210;-67
2023/05/03 08:03:12;;;;;;;4.40;0.77;;;20.40;80.30;;;;;;5074582;28;20172;-68
2023/05/03 08:05:40;;;;;;;2.63;0.70;;;20.40;79.10;;;;;;5073426;28;20191;-68
2023/05/03 08:08:09;;;;;;;1.63;0.60;;;20.40;81.90;;;;;;5074400;28;20200;-68
2023/05/03 08:10:36;;;;;;;2.17;0.63;;;20.50;80.30;;;;;;5074321;28;20629;-67
2023/05/03 08:13:05;;;;;;;2.43;0.90;;;20.40;82.50;;;;;;5074164;28;20179;-67
2023/05/03 08:15:33;;;;;;;1.20;0.70;;;20.40;84.20;;;;;;5073861;28;20288;-66
2023/05/03 08:18:01;;;;;;;4.17;0.97;;;20.30;83.60;;;;;;5074130;28;20172;-66
2023/05/03 08:20:29;;;;;;;5.10;0.90;;;20.30;84.20;;;;;;5074199;28;20211;-66
2023/05/03 08:22:58;;;;;;;1.90;0.97;;;20.30;86.60;;;;;;5074310;28;20621;-66
2023/05/03 08:25:27;;;;;;;2.43;0.90;;;20.20;90.10;;;;;;5073919;28;20664;-66
2023/05/03 08:27:54;;;;;;;6.27;0.93;;;20.20;89.80;;;;;;5074095;28;20190;-67
2023/05/03 08:30:22;;;;;;;1.10;0.60;;;20.10;90.80;;;;;;5073950;28;20187;-66
2023/05/03 08:32:50;;;;;;;1.53;0.90;;;20.00;91.60;;;;;;5073801;28;20182;-67
2023/05/03 08:35:18;;;;;;;3.73;1.00;;;20.00;93.50;;;;;;5073697;28;20188;-68
2023/05/03 08:37:46;;;;;;;4.53;0.97;;;20.00;92.90;;;;;;5073711;28;20177;-68
2023/05/03 08:40:14;;;;;;;1.67;0.73;;;20.00;93.50;;;;;;5073728;28;20677;-68
2023/05/03 08:42:45;;;;;;;2.60;1.00;;;20.00;95.30;;;;;;5072582;28;20183;-67
2023/05/03 08:45:16;;;;;;;6.97;1.50;;;19.90;97.20;;;;;;5073556;28;20299;-68
2023/05/03 08:47:45;;;;;;;2.50;0.80;;;19.90;96.90;;;;;;5073552;28;20205;-68
2023/05/03 08:50:14;;;;;;;4.77;1.10;;;19.80;98.60;;;;;;5073564;28;20232;-68
2023/05/03 08:52:43;;;;;;;3.77;1.33;;;19.80;99.60;;;;;;5073569;28;20179;-67
2023/05/03 08:55:11;;;;;;;2.37;0.80;;;19.80;96.40;;;;;;5073255;28;20286;-66
2023/05/03 08:57:40;;;;;;;2.00;0.80;;;19.70;93.40;;;;;;5073399;28;20640;-68
2023/05/03 09:00:09;;;;;;;2.90;0.80;;;19.80;93.40;;;;;;5073411;28;20569;-68
2023/05/03 09:02:38;;;;;;;5.13;0.87;;;19.80;91.20;;;;;;5073257;28;20616;-67
2023/05/03 09:05:33;;;;;;;3.60;0.70;;;19.80;86.10;;;;;;5072087;28;20178;-67
2023/05/03 09:08:06;;;;;;;0.93;0.50;;;19.80;86.50;;;;;;5068518;28;20205;-67
2023/05/03 09:10:38;;;;;;;5.43;0.60;;;19.70;88.10;;;;;;5073114;28;20172;-66
2023/05/03 09:13:06;;;;;;;1.53;0.80;;;19.60;89.40;;;;;;5073282;28;20168;-67
2023/05/03 09:15:35;;;;;;;4.30;0.93;;;19.60;88.80;;;;;;5072734;28;20231;-66
2023/05/03 09:18:15;;;;;;;2.93;1.10;;;19.50;90.00;;;;;;5073154;28;20172;-67
2023/05/03 09:20:50;;;;;;;1.83;0.70;;;19.50;90.80;;;;;;5073213;28;20243;-67
2023/05/03 09:23:28;;;;;;;4.37;0.80;;;19.40;91.20;;;;;;5073189;28;20179;-68
2023/05/03 09:25:56;;;;;;;2.43;0.60;;;19.30;91.60;;;;;;5073446;28;20167;-66
2023/05/03 09:28:24;;;;;;;2.00;0.90;;;19.20;91.60;;;;;;5073132;28;20180;-66
2023/05/03 09:31:05;;;;;;;1.77;0.90;;;19.10;94.60;;;;;;5073037;28;20179;-66
2023/05/03 09:33:33;;;;;;;2.07;1.00;;;19.10;97.60;;;;;;5072892;28;20178;-67
2023/05/03 09:36:04;;;;;;;2.07;0.80;;;19.00;98.40;;;;;;5071605;28;20544;-66
2023/05/03 09:38:35;;;;;;;2.37;0.77;;;18.90;95.70;;;;;;5071994;28;20175;-67
2023/05/03 09:41:07;;;;;;;4.23;0.77;;;18.90;93.80;;;;;;5073040;28;20223;-67
2023/05/03 09:43:35;;;;;;;2.63;0.87;;;18.90;91.70;;;;;;5073113;28;20176;-68
2023/05/03 09:46:11;;;;;;;4.77;1.00;;;18.90;91.30;;;;;;5072727;28;20270;-68
2023/05/03 09:48:40;;;;;;;3.60;1.10;;;18.70;89.40;;;;;;5072938;28;20180;-68
2023/05/03 09:51:10;;;;;;;7.07;1.30;;;18.80;86.40;;;;;;5072851;28;20176;-69
2023/05/03 09:53:40;;;;;;;2.67;1.00;;;18.70;84.70;;;;;;5072926;28;20208;-68
2023/05/03 09:56:13;;;;;;;5.53;1.03;;;18.70;80.20;;;;;;5072917;28;20180;-67
2023/05/03 09:58:42;;;;;;;3.67;1.10;;;18.70;80.50;;;;;;5072797;28;20196;-68
2023/05/03 10:01:10;;;;;;;5.83;1.27;;;18.60;80.10;;;;;;5072606;28;20228;-68
2023/05/03 10:03:49;;;;;;;4.57;1.30;;;18.60;82.70;;;;;;5072917;28;20180;-67
2023/05/03 10:06:24;;;;;;;3.33;0.97;;;18.40;90.70;;;;;;5073946;28;20702;-68
2023/05/03 10:09:04;;;;;;;3.57;1.07;;;18.30;93.20;;;;;;5076667;28;20171;-67
2023/05/03 10:11:37;;;;;;;4.43;1.50;;;18.20;93.90;;;;;;5075377;28;20203;-69
2023/05/03 10:14:06;;;;;;;6.70;1.47;;;18.20;97.20;;;;;;5076505;28;20174;-69
2023/05/03 10:16:38;;;;;;;5.57;1.43;;;18.10;99.90;;;;;;5076456;28;20270;-67
2023/05/03 10:19:33;;;;;;;4.60;1.13;;;18.00;99.90;;;;;;5074907;28;20618;-66
2023/05/03 10:22:06;;;;;;;6.80;1.10;;;17.90;99.90;;;;;;5067257;28;20638;-70
2023/05/03 10:24:35;;;;;;;4.10;1.33;;;17.80;99.90;;;;;;5075314;28;20184;-71
2023/05/03 10:27:07;;;;;;;6.37;1.43;;;17.80;99.90;;;;;;5075735;28;20691;-67
2023/05/03 10:29:45;;;;;;;3.83;1.40;;;17.80;99.90;;;;;;5075239;28;20267;-67
2023/05/03 10:32:31;;;;;;;5.83;1.53;;;17.80;99.90;;;;;;5055939;28;20180;-71
2023/05/03 10:35:02;;;;;;;5.87;1.33;;;17.80;99.90;;;;;;5069404;28;20705;-72
2023/05/03 10:37:31;;;;;;;7.20;1.87;;;17.70;99.90;;;;;;5075489;28;20176;-69
2023/05/03 10:40:21;;;;;;;3.93;1.20;;;17.70;99.90;;;;;;5074438;28;20208;-69
2023/05/03 10:42:55;;;;;;;3.97;1.27;;;17.60;99.90;;;;;;5075637;28;20176;-70
2023/05/03 10:45:30;;;;;;;5.23;1.63;;;17.60;99.90;;;;;;5074915;28;20205;-72
2023/05/03 10:48:15;;;;;;;8.40;1.97;;;17.40;99.90;;;;;;5074752;28;20191;-70
2023/05/03 10:50:43;;;;;;;7.27;1.67;;;17.30;99.90;;;;;;5055556;28;20743;-72
2023/05/03 10:53:30;;;;;;;4.03;1.57;;;17.20;99.90;;;;;;5055356;28;20235;-70
2023/05/03 10:56:07;;;;;;;6.30;1.47;;;17.20;99.90;;;;;;5055371;28;20176;-72
2023/05/03 10:58:43;;;;;;;8.37;1.50;;;17.20;99.90;;;;;;5055168;28;20208;-67
2023/05/03 11:01:12;;;;;;;6.50;1.93;;;17.20;99.90;;;;;;5055172;28;20562;-68
2023/05/03 11:03:43;;;;;;;6.70;2.00;;;17.20;99.90;;;;;;5055405;28;20173;-71
2023/05/03 11:06:26;;;;;;;7.53;1.80;;;17.20;99.90;;;;;;5054926;28;20255;-68
2023/05/03 11:08:53;;;;;;;5.50;1.83;;;17.20;99.90;;;;;;5055216;28;20621;-71
2023/05/03 11:11:21;;;;;;;9.27;2.40;;;17.10;99.90;;;;;;5054939;28;20183;-67
2023/05/03 11:13:51;;;;;;;8.80;2.27;;;17.10;99.90;;;;;;5054987;28;20176;-68
2023/05/03 11:16:18;;;;;;;5.50;1.70;;;17.10;99.90;;;;;;5054949;28;20236;-69
2023/05/03 11:18:47;;;;;;;7.07;2.00;;;17.20;99.90;;;;;;5054877;28;20172;-68
2023/05/03 11:21:15;;;;;;;7.27;1.90;;;17.10;99.90;;;;;;5054697;28;20230;-72
2023/05/03 11:23:43;;;;;;;8.97;2.03;;;17.10;99.90;;;;;;5054844;28;20191;-70
2023/05/03 11:26:11;;;;;;;10.27;2.10;;;17.20;99.90;;;;;;5054522;28;20653;-67
2023/05/03 11:28:42;;;;;;;7.40;2.23;;;17.10;99.90;;;;;;5054909;28;20169;-73
2023/05/03 11:31:12;;;;;;;7.43;2.10;;;17.10;99.90;;;;;;5054516;28;20276;-73
2023/05/03 11:33:40;;;;;;;6.83;2.30;;;17.10;99.90;;;;;;5054672;28;20168;-72
2023/05/03 11:36:09;;;;;;;9.03;2.07;;;17.10;99.90;;;;;;5053139;28;20184;-68
2023/05/03 11:38:39;;;;;;;12.93;2.23;;;17.00;99.90;;;;;;5054550;28;20196;-68
2023/05/03 11:41:17;;;;;;;7.70;2.13;;;17.00;99.90;;;;;;5054699;28;20665;-70
2023/05/03 11:43:46;;;;;;;7.67;2.33;;;16.90;99.90;;;;;;5058572;28;20188;-71
2023/05/03 11:46:20;;;;;;;7.17;2.27;;;16.80;99.90;;;;;;5066426;28;20211;-70
2023/05/03 11:48:48;;;;;;;14.27;2.63;;;16.80;99.90;;;;;;5074162;28;20218;-72
2023/05/03 11:51:20;;;;;;;8.67;2.20;;;16.70;99.90;;;;;;5073996;28;20222;-74
2023/05/03 11:53:48;;;;;;;6.40;2.00;;;16.70;99.90;;;;;;5074112;28;20541;-74
2023/05/03 11:56:19;;;;;;;10.40;2.63;;;16.60;99.90;;;;;;5074397;28;20195;-72
2023/05/03 11:58:58;;;;;;;15.93;2.90;;;16.40;99.90;;;;;;5073909;28;20607;-72
2023/05/03 12:01:29;;;;;;;8.03;2.47;;;16.40;99.90;;;;;;5073898;28;20211;-73
2023/05/03 12:04:06;;;;;;;11.47;2.40;;;16.40;99.90;;;;;;5073515;28;20171;-73
2023/05/03 12:06:35;;;;;;;11.93;2.57;;;16.30;99.90;;;;;;5074347;28;20645;-72
2023/05/03 12:09:03;;;;;;;11.40;2.80;;;16.30;99.90;;;;;;5073658;28;20270;-73
2023/05/03 12:11:40;;;;;;;11.23;2.63;;;16.20;99.90;;;;;;5074134;28;20183;-72
2023/05/03 12:14:08;;;;;;;11.30;2.50;;;16.10;99.90;;;;;;5073225;28;20230;-70
2023/05/03 12:16:50;;;;;;;9.23;2.40;;;16.00;99.90;;;;;;5073345;28;20227;-70
2023/05/03 12:19:28;;;;;;;8.03;2.70;;;15.90;99.90;;;;;;5073731;28;20184;-73
2023/05/03 12:21:56;;;;;;;14.97;2.47;;;16.00;99.90;;;;;;5073814;28;20218;-74
2023/05/03 12:24:25;;;;;;;10.43;2.67;;;16.10;99.90;;;;;;5073439;28;20195;-74
2023/05/03 12:26:52;;;;;;;11.10;2.43;;;16.10;99.90;;;;;;5074058;28;20697;-72
2023/05/03 12:29:20;;;;;;;9.10;2.87;;;16.10;99.90;;;;;;5072924;28;20172;-71
2023/05/03 12:31:47;;;;;;;10.27;2.83;;;16.10;99.90;;;;;;5073179;28;20233;-73
2023/05/03 12:34:15;;;;;;;8.70;2.97;;;16.00;99.90;;;;;;5071342;28;20567;-71
2023/05/03 12:36:42;;;;;;;12.73;2.60;;;15.90;99.90;;;;;;5073371;28;20179;-70
2023/05/03 12:39:10;;;;;;;10.60;2.80;;;15.80;99.90;;;;;;5066273;28;20284;-69
2023/05/03 12:41:38;;;;;;;9.57;2.97;;;15.80;99.90;;;;;;5073097;28;20203;-69
2023/05/03 12:44:05;;;;;;;10.83;3.30;;;15.70;99.90;;;;;;5072321;28;20179;-72
2023/05/03 12:46:33;;;;;;;12.20;3.13;;;15.70;99.90;;;;;;5073508;28;20195;-72
2023/05/03 12:49:00;;;;;;;12.87;3.50;;;15.70;99.90;;;;;;5073553;28;20594;-71
2023/05/03 12:51:27;;;;;;;10.67;3.00;;;15.60;99.90;;;;;;5073012;28;20179;-69
2023/05/03 12:53:55;;;;;;;12.00;2.80;;;15.50;99.90;;;;;;5072595;28;20184;-71
2023/05/03 12:56:22;;;;;;;11.40;3.37;;;15.50;99.90;;;;;;5072596;28;20194;-72
2023/05/03 12:58:50;;;;;;;12.87;2.87;;;15.50;99.90;;;;;;5072752;28;20180;-72
2023/05/03 13:01:18;;;;;;;11.27;2.83;;;15.50;99.90;;;;;;5072903;28;20215;-72